Time;durP1;ratioP1;P1;durP2;ratioP2;P2;SDS_P1;SDS_P2;PMS_P1;PMS_P2;Temp;Humidity;BMP_temperature;BMP_pressure;BME280_temperature;BME280_humidity;BME280_pressure;Samples;Min_cycle;Max_cycle;Signal;HPM_P1;HPM_P2
2022/03/02 00:02:24;;;;;;;11.40;4.65;;;;;;;3.21;37.30;100797.97;4427701;32;33108;-73
2022/03/02 00:04:54;;;;;;;10.65;4.35;;;;;;;3.19;37.21;100794.53;4440538;32;34136;-73
2022/03/02 00:07:21;;;;;;;10.93;4.82;;;;;;;3.11;37.69;100797.91;4453522;32;33545;-73
2022/03/02 00:09:50;;;;;;;12.93;5.12;;;;;;;2.90;38.19;100795.22;4427059;32;33689;-73
2022/03/02 00:12:18;;;;;;;11.52;4.90;;;;;;;2.93;37.74;100781.38;4439645;32;34545;-73
2022/03/02 00:14:45;;;;;;;12.80;4.85;;;;;;;2.94;37.99;100776.81;4452758;32;34644;-73
2022/03/02 00:17:13;;;;;;;13.20;5.57;;;;;;;3.16;38.22;100775.81;4452851;32;33479;-73
2022/03/02 00:19:47;;;;;;;13.73;5.45;;;;;;;3.05;38.11;100784.03;4453113;32;34280;-73
2022/03/02 00:22:14;;;;;;;19.15;6.03;;;;;;;3.05;37.83;100781.31;4440007;32;34493;-73
2022/03/02 00:24:43;;;;;;;12.43;5.50;;;;;;;2.84;38.21;100784.03;4453431;32;33819;-73
2022/03/02 00:27:10;;;;;;;16.55;5.68;;;;;;;2.88;37.92;100791.78;4454157;32;33236;-73
2022/03/02 00:29:38;;;;;;;14.50;5.72;;;;;;;2.91;37.80;100785.22;4440160;32;34434;-73
2022/03/02 00:32:06;;;;;;;12.37;5.57;;;;;;;2.82;37.99;100778.75;4454148;32;34309;-73
2022/03/02 00:34:33;;;;;;;18.42;6.65;;;;;;;2.96;38.55;100782.97;4453017;32;33970;-73
2022/03/02 00:37:03;;;;;;;11.88;5.35;;;;;;;2.94;38.62;100785.81;4427493;32;32951;-73
2022/03/02 00:39:33;;;;;;;13.30;5.60;;;;;;;2.71;38.85;100778.81;4427710;32;33586;-73
2022/03/02 00:42:02;;;;;;;16.23;6.68;;;;;;;2.78;38.56;100777.28;4426412;32;33289;-73
2022/03/02 00:44:29;;;;;;;13.23;6.22;;;;;;;2.65;38.95;100758.50;4440227;32;33884;-73
2022/03/02 00:47:00;;;;;;;15.30;6.55;;;;;;;2.85;38.75;100764.94;4440255;32;33307;-73
2022/03/02 00:49:32;;;;;;;13.88;6.18;;;;;;;3.02;38.21;100759.88;4428427;32;33882;-73
2022/03/02 00:52:00;;;;;;;13.48;6.07;;;;;;;2.84;38.63;100762.34;4427340;32;34428;-73
2022/03/02 00:54:30;;;;;;;12.70;5.35;;;;;;;2.62;38.74;100758.78;4439777;32;32580;-73
2022/03/02 00:56:58;;;;;;;14.73;6.95;;;;;;;2.70;38.64;100754.53;4425606;32;32090;-73
2022/03/02 00:59:26;;;;;;;11.32;5.55;;;;;;;2.62;38.89;100741.66;4455423;32;33734;-73
2022/03/02 01:01:56;;;;;;;11.55;5.10;;;;;;;2.53;39.00;100739.78;4455376;32;34417;-73
2022/03/02 01:04:23;;;;;;;15.00;5.78;;;;;;;2.61;39.01;100740.78;4455139;32;32487;-73
2022/03/02 01:06:51;;;;;;;12.68;6.03;;;;;;;2.35;39.07;100734.06;4455421;32;33508;-73
2022/03/02 01:09:19;;;;;;;14.35;5.80;;;;;;;2.33;38.83;100724.34;4442278;32;33223;-73
2022/03/02 01:11:46;;;;;;;13.80;5.80;;;;;;;2.31;38.86;100728.06;4454998;32;34220;-73
2022/03/02 01:14:14;;;;;;;13.93;6.12;;;;;;;2.39;38.77;100723.84;4469052;32;33769;-73
2022/03/02 01:16:42;;;;;;;12.95;6.10;;;;;;;2.62;38.93;100717.25;4455249;32;33332;-73
2022/03/02 01:19:13;;;;;;;14.50;5.72;;;;;;;2.60;38.97;100711.16;4442332;32;33194;-73
2022/03/02 01:21:41;;;;;;;13.50;5.80;;;;;;;2.61;38.74;100715.56;4469204;32;35157;-73
2022/03/02 01:24:11;;;;;;;10.98;5.40;;;;;;;2.67;38.67;100716.88;4470821;32;34007;-73
2022/03/02 01:26:39;;;;;;;12.00;5.80;;;;;;;2.47;39.25;100711.34;4471287;32;34015;-73
2022/03/02 01:29:06;;;;;;;14.43;6.12;;;;;;;2.47;39.44;100711.34;4444525;32;33989;-72
2022/03/02 01:31:34;;;;;;;12.80;5.80;;;;;;;2.26;39.76;100697.78;4443810;32;32944;-73
2022/03/02 01:34:04;;;;;;;14.87;6.57;;;;;;;2.29;39.54;100704.78;4431561;32;32548;-73
2022/03/02 01:36:34;;;;;;;12.95;6.07;;;;;;;2.30;39.52;100704.66;4457205;32;33777;-73
2022/03/02 01:39:03;;;;;;;14.55;5.93;;;;;;;2.23;39.61;100697.19;4456938;32;33802;-73
2022/03/02 01:41:30;;;;;;;13.25;6.93;;;;;;;2.21;39.33;100701.87;4444259;32;34364;-73
2022/03/02 01:43:58;;;;;;;14.77;6.78;;;;;;;2.13;39.69;100694.41;4457069;32;34661;-73
2022/03/02 01:46:25;;;;;;;12.65;5.80;;;;;;;2.15;39.87;100699.69;4456971;32;33612;-73
2022/03/02 01:48:53;;;;;;;11.55;5.90;;;;;;;2.18;39.99;100689.47;4456416;32;33227;-73
2022/03/02 01:51:21;;;;;;;12.55;6.00;;;;;;;2.20;39.56;100697.47;4444065;32;33014;-73
2022/03/02 01:53:49;;;;;;;12.93;6.07;;;;;;;2.16;39.54;100685.16;4443965;32;32632;-73
2022/03/02 01:56:17;;;;;;;13.00;5.82;;;;;;;2.13;39.49;100683.56;4456767;32;33182;-73
2022/03/02 01:58:45;;;;;;;14.57;6.12;;;;;;;2.15;39.51;100684.31;4456090;32;33838;-73
2022/03/02 02:01:13;;;;;;;18.05;10.43;;;;;;;2.40;39.30;100688.47;4443950;32;34052;-73
2022/03/02 02:03:43;;;;;;;14.87;7.00;;;;;;;2.30;39.84;100682.13;4444191;32;33891;-73
2022/03/02 02:06:13;;;;;;;12.98;6.07;;;;;;;2.17;40.09;100690.44;4456690;32;34048;-73
2022/03/02 02:08:41;;;;;;;11.38;5.32;;;;;;;2.00;40.02;100680.19;4444019;32;32433;-73
2022/03/02 02:11:11;;;;;;;13.80;7.73;;;;;;;2.19;39.92;100685.75;4456863;32;34517;-73
2022/03/02 02:13:38;;;;;;;14.67;7.20;;;;;;;2.25;39.64;100681.69;4456467;32;33974;-73
2022/03/02 02:16:07;;;;;;;17.05;6.70;;;;;;;2.11;39.60;100677.44;4456785;32;33575;-73
2022/03/02 02:18:35;;;;;;;12.70;5.45;;;;;;;2.13;39.80;100671.88;4456818;32;34792;-73
2022/03/02 02:21:05;;;;;;;14.02;5.37;;;;;;;1.94;40.03;100680.75;4456673;32;34446;-73
2022/03/02 02:23:37;;;;;;;15.35;5.65;;;;;;;1.78;39.59;100683.00;4443840;32;33011;-73
2022/03/02 02:26:05;;;;;;;13.80;5.10;;;;;;;1.90;39.23;100677.44;4456816;32;33364;-73
2022/03/02 02:28:33;;;;;;;12.35;5.47;;;;;;;1.88;39.69;100671.28;4443711;32;33151;-73
2022/03/02 02:31:04;;;;;;;11.93;5.15;;;;;;;1.91;40.12;100678.28;4444036;32;34300;-73
2022/03/02 02:33:32;;;;;;;14.07;5.18;;;;;;;1.84;40.06;100677.94;4456619;32;33881;-73
2022/03/02 02:36:00;;;;;;;11.53;5.17;;;;;;;1.87;39.66;100671.41;4455940;32;33358;-73
2022/03/02 02:38:28;;;;;;;12.50;5.15;;;;;;;1.82;39.47;100666.38;4470729;32;34592;-72
2022/03/02 02:40:56;;;;;;;15.68;5.78;;;;;;;1.85;39.41;100674.25;4470519;32;35206;-73
2022/03/02 02:43:24;;;;;;;12.05;5.55;;;;;;;1.74;40.04;100678.84;4443198;32;32444;-73
2022/03/02 02:45:53;;;;;;;11.90;5.22;;;;;;;1.82;40.00;100682.62;4456663;32;33250;-73
2022/03/02 02:48:21;;;;;;;11.25;5.50;;;;;;;1.63;40.40;100677.03;4456565;32;33865;-73
2022/03/02 02:50:49;;;;;;;11.93;5.15;;;;;;;1.79;39.79;100663.09;4456599;32;34087;-73
2022/03/02 02:53:17;;;;;;;13.30;5.10;;;;;;;1.67;40.47;100673.09;4456678;32;33974;-73
2022/03/02 02:55:46;;;;;;;11.85;5.10;;;;;;;1.68;40.30;100673.94;4470123;32;33435;-73
2022/03/02 02:58:13;;;;;;;14.43;4.90;;;;;;;1.63;40.11;100677.87;4456241;32;33267;-73
2022/03/02 03:00:45;;;;;;;14.40;5.20;;;;;;;1.69;39.97;100684.63;4443533;32;32844;-73
2022/03/02 03:03:13;;;;;;;12.18;5.18;;;;;;;1.61;40.33;100676.28;4456218;32;33881;-73
2022/03/02 03:05:41;;;;;;;12.15;5.20;;;;;;;1.72;39.99;100676.25;4456559;32;33470;-73
2022/03/02 03:08:09;;;;;;;9.70;4.77;;;;;;;1.69;39.65;100676.53;4443343;32;32316;-73
2022/03/02 03:10:40;;;;;;;12.80;5.12;;;;;;;1.63;39.50;100683.31;4443569;32;34145;-73
2022/03/02 03:13:08;;;;;;;12.83;5.10;;;;;;;1.63;39.88;100677.87;4443450;32;32411;-73
2022/03/02 03:15:36;;;;;;;11.93;4.72;;;;;;;1.52;40.46;100679.75;4456283;32;33247;-73
2022/03/02 03:18:05;;;;;;;14.65;5.05;;;;;;;1.57;40.40;100674.84;4456340;32;34507;-73
2022/03/02 03:20:33;;;;;;;11.27;4.67;;;;;;;1.52;40.56;100675.22;4443227;32;32929;-73
2022/03/02 03:23:01;;;;;;;10.63;4.77;;;;;;;1.33;40.66;100678.56;4456136;32;32624;-73
2022/03/02 03:25:29;;;;;;;9.98;4.53;;;;;;;1.47;40.60;100680.13;4470196;32;33570;-73
2022/03/02 03:27:59;;;;;;;12.35;4.68;;;;;;;1.61;39.98;100673.59;4456410;32;34651;-72
2022/03/02 03:30:27;;;;;;;10.43;4.53;;;;;;;1.53;39.96;100674.22;4456243;32;34978;-73
2022/03/02 03:32:56;;;;;;;9.00;4.45;;;;;;;1.60;40.10;100677.28;4456061;32;34986;-73
2022/03/02 03:35:25;;;;;;;10.55;4.97;;;;;;;1.59;40.38;100668.31;4456383;32;33870;-73
2022/03/02 03:37:53;;;;;;;10.20;4.65;;;;;;;1.56;40.49;100679.38;4456328;32;34677;-73
2022/03/02 03:40:21;;;;;;;12.82;5.70;;;;;;;1.40;40.92;100673.50;4456125;32;33975;-72
2022/03/02 03:42:50;;;;;;;9.87;4.57;;;;;;;1.35;40.53;100662.22;4456141;32;34644;-73
2022/03/02 03:45:18;;;;;;;10.68;4.68;;;;;;;1.42;40.51;100674.25;4455978;32;34000;-73
2022/03/02 03:47:46;;;;;;;11.73;5.07;;;;;;;1.46;40.83;100675.72;4469294;32;34041;-73
2022/03/02 03:50:14;;;;;;;14.23;5.30;;;;;;;1.41;40.86;100671.69;4443283;32;32825;-73
2022/03/02 03:52:42;;;;;;;10.48;4.78;;;;;;;1.23;41.58;100665.97;4456068;32;34080;-73
2022/03/02 03:55:13;;;;;;;8.95;3.90;;;;;;;1.41;41.07;100669.81;4455959;32;33284;-73
2022/03/02 03:57:41;;;;;;;10.90;4.43;;;;;;;1.42;40.58;100666.12;4443009;32;32251;-73
2022/03/02 04:00:15;;;;;;;14.68;4.97;;;;;;;1.55;40.28;100665.97;4456204;32;34154;-73
2022/03/02 04:02:46;;;;;;;9.50;4.82;;;;;;;1.52;40.11;100668.94;4456127;32;33817;-73
2022/03/02 04:05:14;;;;;;;9.98;4.62;;;;;;;1.68;40.46;100658.56;4456005;32;33985;-73
2022/03/02 04:07:46;;;;;;;11.20;5.25;;;;;;;1.60;40.99;100656.50;4456599;32;33720;-73
2022/03/02 04:10:14;;;;;;;12.13;4.93;;;;;;;1.52;41.04;100661.69;4456034;32;35311;-73
2022/03/02 04:12:42;;;;;;;13.13;4.97;;;;;;;1.36;41.09;100657.66;4430220;32;32337;-73
2022/03/02 04:15:11;;;;;;;11.25;4.78;;;;;;;1.54;40.51;100646.19;4455700;32;33325;-73
2022/03/02 04:17:41;;;;;;;10.80;5.17;;;;;;;1.34;40.55;100649.69;4455727;32;32317;-73
2022/03/02 04:20:12;;;;;;;14.65;4.95;;;;;;;1.41;40.70;100656.31;4455814;32;34453;-73
2022/03/02 04:22:40;;;;;;;11.87;4.63;;;;;;;1.43;40.67;100658.88;4455996;32;33919;-73
2022/03/02 04:25:08;;;;;;;10.95;5.30;;;;;;;1.28;40.90;100653.78;4455852;32;34178;-73
2022/03/02 04:27:38;;;;;;;16.00;4.97;;;;;;;1.39;41.04;100652.88;4443035;32;33177;-73
2022/03/02 04:30:08;;;;;;;13.57;5.95;;;;;;;1.31;41.25;100655.34;4455828;32;35250;-72
2022/03/02 04:32:37;;;;;;;14.75;6.32;;;;;;;1.21;41.67;100654.41;4455721;32;34657;-72
2022/03/02 04:35:06;;;;;;;17.27;5.97;;;;;;;1.41;41.50;100650.03;4469750;32;34603;-72
2022/03/02 04:37:37;;;;;;;12.30;4.90;;;;;;;1.27;42.00;100648.50;4442682;32;32305;-73
2022/03/02 04:40:07;;;;;;;16.70;5.45;;;;;;;1.18;41.97;100649.25;4455652;32;35215;-72
2022/03/02 04:42:35;;;;;;;10.80;5.07;;;;;;;1.27;41.71;100646.66;4442671;32;32399;-73
2022/03/02 04:45:03;;;;;;;14.48;5.22;;;;;;;1.12;41.86;100645.19;4455754;32;33256;-73
2022/03/02 04:47:31;;;;;;;16.15;5.72;;;;;;;1.16;41.80;100641.25;4455705;32;33729;-73
2022/03/02 04:49:59;;;;;;;11.90;5.20;;;;;;;1.18;41.91;100646.53;4455602;32;34292;-72
2022/03/02 04:52:28;;;;;;;13.25;4.82;;;;;;;1.14;41.85;100635.12;4442549;32;32505;-73
2022/03/02 04:55:07;;;;;;;11.55;4.85;;;;;;;1.32;42.28;100635.44;4455961;32;33294;-72
2022/03/02 04:57:43;;;;;;;11.73;5.45;;;;;;;1.33;42.50;100626.31;4456434;32;34718;-72
2022/03/02 05:00:17;;;;;;;9.18;5.30;;;;;;;1.35;42.63;100629.75;4460654;32;34459;-72
2022/03/02 05:02:45;;;;;;;11.03;5.03;;;;;;;1.53;42.58;100630.09;4447840;32;34034;-73
2022/03/02 05:05:15;;;;;;;11.30;5.28;;;;;;;1.50;42.62;100628.50;4460734;32;33665;-72
2022/03/02 05:07:44;;;;;;;17.95;5.57;;;;;;;1.21;43.20;100621.97;4460585;32;33968;-73
2022/03/02 05:10:13;;;;;;;15.15;5.07;;;;;;;1.12;43.31;100620.88;4459376;32;34605;-73
2022/03/02 05:12:40;;;;;;;29.07;15.10;;;;;;;1.12;43.33;100620.00;4460026;32;33946;-72
2022/03/02 05:15:09;;;;;;;35.85;17.75;;;;;;;1.40;42.86;100626.69;4447520;32;33485;-72
2022/03/02 05:17:38;;;;;;;41.10;20.92;;;;;;;1.37;43.09;100627.78;4474014;32;34488;-73
2022/03/02 05:20:07;;;;;;;17.40;8.85;;;;;;;1.24;43.10;100627.13;4434397;32;32954;-75
2022/03/02 05:22:35;;;;;;;15.80;5.68;;;;;;;1.05;43.55;100624.19;4447434;32;32569;-74
2022/03/02 05:25:05;;;;;;;14.32;5.45;;;;;;;1.16;50.97;100635.00;4460217;32;31861;-75
2022/03/02 05:27:33;;;;;;;10.20;4.73;;;;;;;1.69;62.89;100629.66;4447574;32;33351;-72
2022/03/02 05:30:01;;;;;;;17.35;6.90;;;;;;;3.71;83.66;100627.00;4460309;32;34462;-74
2022/03/02 05:32:28;;;;;;;14.48;6.03;;;;;;;3.94;72.76;100622.97;4460053;32;33933;-75
2022/03/02 05:34:56;;;;;;;10.55;5.53;;;;;;;3.75;46.90;100617.56;4460145;32;33225;-75
2022/03/02 05:37:24;;;;;;;11.02;5.10;;;;;;;3.47;43.62;100611.97;4460120;32;34404;-74
2022/03/02 05:39:51;;;;;;;10.95;4.72;;;;;;;3.14;41.24;100623.22;4460174;32;35094;-74
2022/03/02 05:42:19;;;;;;;11.70;5.90;;;;;;;3.23;63.51;100617.81;4446995;32;32400;-73
2022/03/02 05:44:46;;;;;;;13.75;5.28;;;;;;;4.98;76.97;100619.28;4459720;32;31840;-75
2022/03/02 05:47:17;;;;;;;11.63;4.95;;;;;;;5.09;47.85;100620.94;4473885;32;33683;-75
2022/03/02 05:49:45;;;;;;;21.00;7.22;;;;;;;4.92;39.75;100607.13;4460220;32;35145;-77
2022/03/02 05:52:12;;;;;;;16.42;7.40;;;;;;;4.54;38.15;100607.31;4446959;32;33935;-75
2022/03/02 05:54:40;;;;;;;14.43;6.72;;;;;;;4.60;39.49;100612.12;4459223;32;33363;-75
2022/03/02 05:57:08;;;;;;;11.10;5.55;;;;;;;4.10;38.60;100617.81;4459781;32;33576;-75
2022/03/02 05:59:36;;;;;;;11.20;5.35;;;;;;;3.72;38.12;100609.72;4459960;32;34269;-75
2022/03/02 06:02:04;;;;;;;12.82;5.60;;;;;;;3.41;38.93;100609.81;4447032;32;33444;-75
2022/03/02 06:04:33;;;;;;;12.25;5.32;;;;;;;3.18;39.06;100609.22;4447475;32;31875;-75
2022/03/02 06:07:01;;;;;;;11.63;5.20;;;;;;;3.03;39.08;100612.47;4459717;32;33628;-75
2022/03/02 06:09:29;;;;;;;10.48;5.05;;;;;;;3.21;38.73;100608.09;4470658;32;34163;-75
2022/03/02 06:11:57;;;;;;;11.00;5.18;;;;;;;2.99;38.57;100611.88;4469683;32;33355;-75
2022/03/02 06:14:25;;;;;;;12.60;5.22;;;;;;;2.79;38.89;100608.25;4444171;32;31851;-75
2022/03/02 06:16:52;;;;;;;14.63;6.03;;;;;;;2.87;39.20;100608.41;4456985;32;33736;-75
2022/03/02 06:19:20;;;;;;;12.37;5.60;;;;;;;2.64;39.58;100613.16;4444225;32;33924;-75
2022/03/02 06:21:49;;;;;;;11.63;5.47;;;;;;;2.82;39.26;100607.97;4456836;32;32744;-77
2022/03/02 06:24:16;;;;;;;13.35;5.30;;;;;;;3.03;38.88;100615.19;4456737;32;33269;-76
2022/03/02 06:26:44;;;;;;;12.37;5.80;;;;;;;2.71;39.28;100618.03;4456984;32;33731;-75
2022/03/02 06:29:12;;;;;;;19.67;7.97;;;;;;;2.79;39.45;100621.78;4456965;32;34402;-73
2022/03/02 06:31:40;;;;;;;21.12;6.80;;;;;;;2.76;39.56;100622.06;4469582;32;34184;-74
2022/03/02 06:34:08;;;;;;;20.35;7.20;;;;;;;2.84;39.51;100611.41;4457064;32;32532;-75
2022/03/02 06:36:35;;;;;;;16.62;6.12;;;;;;;2.98;39.14;100613.75;4469541;32;33828;-75
2022/03/02 06:39:08;;;;;;;15.23;6.53;;;;;;;3.03;39.13;100617.88;4469558;32;34461;-74
2022/03/02 06:42:02;;;;;;;18.23;6.55;;;;;;;3.17;39.00;100621.06;4456723;32;32297;-74
2022/03/02 06:44:34;;;;;;;29.15;12.10;;;;;;;3.44;39.07;100625.81;4469452;32;32919;-74
2022/03/02 06:47:09;;;;;;;13.85;6.72;;;;;;;3.65;38.40;100620.28;4469648;32;34432;-74
2022/03/02 06:50:00;;;;;;;16.83;6.72;;;;;;;3.81;37.94;100622.44;4469578;32;34421;-74
2022/03/02 06:52:36;;;;;;;24.87;9.55;;;;;;;3.84;37.85;100604.00;4470648;32;34022;-74
2022/03/02 06:55:12;;;;;;;26.58;13.35;;;;;;;4.01;37.45;100615.12;4469566;32;34086;-74
2022/03/02 06:57:40;;;;;;;;;;;;;;;4.09;37.63;100610.66;4432007;32;32334;-74
2022/03/02 07:00:16;;;;;;;30.00;12.75;;;;;;;4.29;37.46;100611.50;4469252;32;34871;-74
2022/03/02 07:02:53;;;;;;;16.55;7.32;;;;;;;4.49;37.40;100609.59;4457052;32;33816;-74
2022/03/02 07:05:21;;;;;;;16.85;6.55;;;;;;;4.61;36.91;100602.97;4456607;32;33185;-74
2022/03/02 07:07:51;;;;;;;16.33;7.12;;;;;;;4.77;36.63;100597.75;4456603;32;33012;-74
2022/03/02 07:10:20;;;;;;;18.05;7.60;;;;;;;5.13;36.32;100590.56;4469269;32;34426;-74
2022/03/02 07:12:52;;;;;;;15.23;6.07;;;;;;;5.23;35.33;100606.81;4456710;32;34108;-74
2022/03/02 07:15:20;;;;;;;17.62;6.03;;;;;;;5.55;35.58;100599.00;4456825;32;33937;-74
2022/03/02 07:17:48;;;;;;;12.77;6.35;;;;;;;5.79;34.44;100594.81;4456414;32;32698;-74
2022/03/02 07:20:16;;;;;;;14.30;7.25;;;;;;;6.27;33.85;100588.94;4456382;32;34213;-75
2022/03/02 07:22:50;;;;;;;18.70;9.55;;;;;;;5.87;33.90;100584.81;4470416;32;33931;-75
2022/03/02 07:25:21;;;;;;;16.12;7.45;;;;;;;5.87;33.40;100583.97;4456447;32;33345;-74
2022/03/02 07:27:50;;;;;;;15.10;6.97;;;;;;;6.03;34.57;100581.41;4456534;32;33851;-75
2022/03/02 07:30:18;;;;;;;14.98;5.97;;;;;;;6.55;33.79;100574.09;4456396;32;34023;-74
2022/03/02 07:32:46;;;;;;;22.55;9.02;;;;;;;6.93;32.92;100570.03;4469163;32;33640;-75
2022/03/02 07:35:17;;;;;;;13.62;6.80;;;;;;;7.12;32.72;100571.66;4443675;32;33735;-75
2022/03/02 07:37:45;;;;;;;13.95;7.07;;;;;;;7.60;31.94;100572.78;4469091;32;33610;-75
2022/03/02 07:40:13;;;;;;;13.32;6.12;;;;;;;7.76;31.47;100577.44;4469342;32;35766;-75
2022/03/02 07:42:41;;;;;;;13.48;6.18;;;;;;;7.65;31.27;100567.69;4456271;32;33723;-75
2022/03/02 07:45:09;;;;;;;13.82;6.55;;;;;;;7.74;31.17;100577.59;4469107;32;33217;-75
2022/03/02 07:47:40;;;;;;;13.07;6.55;;;;;;;8.20;30.64;100573.31;4456248;32;32741;-75
2022/03/02 07:50:08;;;;;;;13.30;6.43;;;;;;;8.21;30.55;100572.28;4456584;32;34477;-75
2022/03/02 07:52:37;;;;;;;16.23;7.50;;;;;;;7.99;30.39;100564.78;4456228;32;32559;-75
2022/03/02 07:55:09;;;;;;;12.32;5.80;;;;;;;8.38;30.38;100564.09;4443438;32;32439;-75
2022/03/02 07:57:41;;;;;;;15.40;6.50;;;;;;;8.25;29.85;100561.84;4427864;32;32219;-75
2022/03/02 08:00:11;;;;;;;13.82;6.32;;;;;;;8.57;30.41;100558.22;4427783;32;32932;-75
2022/03/02 08:02:40;;;;;;;14.93;6.07;;;;;;;8.47;30.34;100557.56;4454449;32;34688;-75
2022/03/02 08:05:13;;;;;;;12.02;5.43;;;;;;;8.44;29.93;100553.31;4415315;32;33124;-75
2022/03/02 08:07:41;;;;;;;14.15;6.18;;;;;;;9.06;28.97;100552.59;4428091;32;34784;-75
2022/03/02 08:10:08;;;;;;;18.30;8.57;;;;;;;9.02;28.98;100546.63;4415153;32;32742;-75
2022/03/02 08:12:36;;;;;;;13.20;5.57;;;;;;;9.21;28.56;100543.41;4427801;32;32413;-75
2022/03/02 08:15:05;;;;;;;9.95;5.72;;;;;;;8.74;28.79;100538.00;4427678;32;31802;-75
2022/03/02 08:17:33;;;;;;;11.05;5.65;;;;;;;8.31;29.42;100539.28;4428327;32;33634;-75
2022/03/02 08:20:04;;;;;;;11.40;5.95;;;;;;;8.77;29.64;100534.06;4427655;32;33329;-75
2022/03/02 08:22:34;;;;;;;14.80;6.03;;;;;;;8.85;28.90;100523.94;4440563;32;34278;-75
2022/03/02 08:25:07;;;;;;;12.52;5.18;;;;;;;8.62;29.18;100531.19;4427637;32;33238;-75
2022/03/02 08:27:37;;;;;;;11.50;4.68;;;;;;;8.82;29.06;100531.63;4440063;32;33709;-75
2022/03/02 08:30:06;;;;;;;19.50;7.32;;;;;;;9.33;28.78;100523.84;4427775;32;34397;-75
2022/03/02 08:32:43;;;;;;;10.07;4.93;;;;;;;9.51;28.41;100518.94;4452070;32;33347;-75
2022/03/02 08:35:11;;;;;;;13.73;5.43;;;;;;;9.78;28.22;100512.03;4440623;32;33993;-75
2022/03/02 08:37:41;;;;;;;10.70;5.10;;;;;;;9.55;28.20;100510.16;4427513;32;32189;-75
2022/03/02 08:40:10;;;;;;;10.70;5.37;;;;;;;10.03;28.29;100513.53;4427470;32;32890;-76
2022/03/02 08:42:38;;;;;;;11.43;5.50;;;;;;;10.10;27.64;100506.25;4427439;32;33563;-76
2022/03/02 08:45:06;;;;;;;17.67;6.90;;;;;;;9.93;27.58;100503.84;4427550;32;33849;-75
2022/03/02 08:47:34;;;;;;;12.60;5.30;;;;;;;10.20;27.67;100498.66;4427616;32;33728;-76
2022/03/02 08:50:04;;;;;;;10.55;5.05;;;;;;;9.84;28.05;100500.31;4414858;32;32919;-76
2022/03/02 08:52:34;;;;;;;11.93;5.65;;;;;;;9.95;27.91;100488.06;4427492;32;33830;-76
2022/03/02 08:55:05;;;;;;;12.43;5.72;;;;;;;10.30;27.90;100489.31;4439917;32;32968;-76
2022/03/02 08:57:34;;;;;;;10.88;5.25;;;;;;;10.50;27.23;100490.44;4468100;32;33933;-76
2022/03/02 09:00:08;;;;;;;10.15;4.70;;;;;;;11.08;26.54;100481.25;4468417;32;35133;-76
2022/03/02 09:02:37;;;;;;;16.08;4.53;;;;;;;10.89;26.77;100481.91;4455514;32;34081;-76
2022/03/02 09:05:06;;;;;;;9.75;5.57;;;;;;;10.73;26.53;100485.69;4455527;32;33397;-76
2022/03/02 09:07:35;;;;;;;9.75;4.93;;;;;;;10.33;27.23;100477.97;4455473;32;34295;-76
2022/03/02 09:10:03;;;;;;;17.70;8.07;;;;;;;10.88;26.61;100474.69;4455347;32;33036;-75
2022/03/02 09:12:31;;;;;;;39.83;18.77;;;;;;;11.65;29.38;100482.31;4469213;32;34068;-75
2022/03/02 09:14:59;;;;;;;11.63;5.35;;;;;;;11.57;27.65;100469.56;4455223;32;31965;-75
2022/03/02 09:17:28;;;;;;;19.10;6.37;;;;;;;12.08;26.16;100478.50;4466759;32;33970;-76
2022/03/02 09:19:56;;;;;;;10.77;5.32;;;;;;;12.52;26.87;100469.88;4442277;32;34570;-76
2022/03/02 09:22:26;;;;;;;15.98;5.30;;;;;;;12.49;25.56;100470.28;4448089;32;34154;-76
2022/03/02 09:24:54;;;;;;;9.27;4.90;;;;;;;12.49;25.76;100464.78;4452407;32;33980;-77
2022/03/02 09:27:22;;;;;;;13.35;5.37;;;;;;;12.97;24.47;100455.72;4442065;32;32344;-77
2022/03/02 09:29:50;;;;;;;9.90;5.18;;;;;;;13.08;24.58;100458.69;4454987;32;35352;-77
2022/03/02 09:32:19;;;;;;;11.52;5.95;;;;;;;13.05;24.74;100448.09;4442337;32;34010;-77
2022/03/02 09:34:49;;;;;;;18.35;9.15;;;;;;;12.93;24.88;100440.66;4442146;32;32978;-77
2022/03/02 09:37:17;;;;;;;21.85;12.18;;;;;;;13.31;24.04;100450.13;4442164;32;33167;-77
2022/03/02 09:39:49;;;;;;;11.63;5.72;;;;;;;13.34;24.12;100446.94;4455541;32;34410;-76
2022/03/02 09:42:31;;;;;;;12.10;5.70;;;;;;;13.09;23.37;100445.75;4441824;32;32455;-77
2022/03/02 09:45:08;;;;;;;9.57;4.85;;;;;;;13.32;23.79;100440.78;4442630;32;31837;-77
2022/03/02 09:47:43;;;;;;;10.25;4.95;;;;;;;13.71;24.02;100441.88;4444101;32;34411;-77
2022/03/02 09:50:14;;;;;;;9.80;4.82;;;;;;;14.00;23.62;100441.47;4456817;32;34415;-77
2022/03/02 09:52:44;;;;;;;9.38;4.97;;;;;;;14.29;22.83;100440.19;4456879;32;34597;-77
2022/03/02 09:55:16;;;;;;;11.07;4.60;;;;;;;14.40;22.51;100441.41;4456792;32;33028;-77
2022/03/02 09:57:47;;;;;;;10.70;4.18;;;;;;;14.60;22.10;100442.25;4456874;32;34419;-77
2022/03/02 10:00:18;;;;;;;11.00;4.87;;;;;;;14.64;22.12;100437.97;4443929;32;32996;-77
2022/03/02 10:02:48;;;;;;;12.75;6.47;;;;;;;14.69;21.96;100429.03;4444320;32;34611;-77
2022/03/02 10:05:20;;;;;;;10.32;4.93;;;;;;;14.62;21.16;100428.22;4444298;32;32881;-77
2022/03/02 10:08:05;;;;;;;11.82;5.85;;;;;;;14.94;21.48;100429.16;4431548;32;32227;-77
2022/03/02 10:10:37;;;;;;;18.35;6.22;;;;;;;14.68;21.55;100422.66;4443903;32;35088;-77
2022/03/02 10:13:10;;;;;;;10.07;4.90;;;;;;;14.98;21.60;100419.34;4456793;32;33786;-77
2022/03/02 10:15:39;;;;;;;11.48;5.85;;;;;;;15.45;21.45;100418.00;4431456;32;31308;-77
2022/03/02 10:18:11;;;;;;;16.35;7.15;;;;;;;15.37;21.16;100410.84;4444122;32;34411;-77
2022/03/02 10:20:42;;;;;;;10.98;4.90;;;;;;;15.64;20.35;100413.41;4443927;32;32670;-77
2022/03/02 10:23:36;;;;;;;9.93;4.82;;;;;;;15.67;20.74;100410.19;4456629;32;34685;-77
2022/03/02 10:26:26;;;;;;;13.75;5.57;;;;;;;15.58;20.47;100409.66;4443360;32;31712;-77
2022/03/02 10:29:04;;;;;;;11.43;5.55;;;;;;;15.15;21.20;100412.22;4430744;32;32271;-75
2022/03/02 10:32:02;;;;;;;15.00;6.47;;;;;;;15.45;20.66;100402.25;4442947;32;32672;-75
2022/03/02 10:34:34;;;;;;;9.80;5.07;;;;;;;15.56;20.97;100391.56;4454940;32;34424;-77
2022/03/02 10:37:09;;;;;;;9.52;5.03;;;;;;;15.48;20.42;100392.66;4443780;32;31976;-77
2022/03/02 10:39:46;;;;;;;12.57;6.35;;;;;;;15.22;20.03;100385.41;4456673;32;33823;-78
2022/03/02 10:42:20;;;;;;;11.73;4.72;;;;;;;14.76;20.45;100386.50;4456300;32;33072;-77
2022/03/02 10:45:08;;;;;;;10.73;4.85;;;;;;;14.73;21.37;100384.19;4443396;32;32639;-75
2022/03/02 10:48:00;;;;;;;10.68;4.93;;;;;;;15.14;20.85;100369.06;4454785;32;33529;-75
2022/03/02 10:50:31;;;;;;;11.27;5.57;;;;;;;15.11;20.34;100367.59;4456431;32;34143;-75
2022/03/02 10:53:04;;;;;;;12.73;6.70;;;;;;;13.96;21.01;100373.13;4443777;32;34215;-75
2022/03/02 10:55:32;;;;;;;11.27;5.07;;;;;;;14.86;21.07;100369.47;4434508;32;277133;-75
2022/03/02 10:58:02;;;;;;;10.90;5.05;;;;;;;15.37;19.90;100361.03;4456368;32;33559;-75
2022/03/02 11:00:29;;;;;;;13.00;5.43;;;;;;;15.34;19.86;100353.19;4443486;32;31720;-75
2022/03/02 11:03:01;;;;;;;11.63;5.57;;;;;;;14.98;20.05;100344.69;4456827;32;35220;-75
2022/03/02 11:05:30;;;;;;;10.98;5.22;;;;;;;14.88;20.90;100355.41;4444249;32;34010;-75
2022/03/02 11:07:58;;;;;;;10.63;5.60;;;;;;;14.49;20.21;100338.81;4443977;32;31795;-75
2022/03/02 11:10:32;;;;;;;11.18;6.32;;;;;;;14.98;21.38;100340.03;4443691;32;33999;-75
2022/03/02 11:13:03;;;;;;;11.15;5.60;;;;;;;14.99;20.90;100329.81;4444242;32;33919;-75
2022/03/02 11:16:09;;;;;;;10.60;5.47;;;;;;;15.15;21.08;100340.34;4443505;32;32472;-75
2022/03/02 11:18:48;;;;;;;9.50;5.47;;;;;;;15.22;21.12;100334.78;4366806;32;32773;-75
2022/03/02 11:21:29;;;;;;;12.25;5.18;;;;;;;15.02;20.77;100332.97;4441404;32;33528;-75
2022/03/02 11:24:00;;;;;;;11.02;5.45;;;;;;;14.73;20.94;100334.44;4443014;32;32922;-75
2022/03/02 11:26:30;;;;;;;11.00;5.35;;;;;;;14.83;20.23;100333.97;4443153;32;34829;-75
2022/03/02 11:29:02;;;;;;;11.35;5.18;;;;;;;15.12;21.13;100325.06;4456008;32;34230;-75
2022/03/02 11:31:40;;;;;;;9.73;5.03;;;;;;;15.19;20.44;100315.88;4441280;32;33626;-75
2022/03/02 11:34:10;;;;;;;10.57;5.30;;;;;;;14.96;20.55;100310.91;4441141;32;35325;-75
2022/03/02 11:36:39;;;;;;;16.80;8.55;;;;;;;15.09;20.92;100308.06;4442758;32;33456;-75
2022/03/02 11:39:08;;;;;;;11.43;5.70;;;;;;;15.24;21.33;100300.28;4433683;32;32994;-75